Terminal Aerodrome Forecast
Issued by NWS

Home | Current Version | Previous Version | Text Only | Print | Product List | Glossary On
Versions: 1 2 3 4 5 6 7 8 9 10 11 12 13 14 15 16 17
000
FTUS43 KILX 261724
TAFCMI
TAF
KCMI 261724Z 2618/2718 15007KT P6SM FEW050 SCT100
     FM270300 16004KT P6SM VCTS BKN050CB
      TEMPO 2704/2708 6SM -TSRA BR BKN050CB
     FM270800 VRB03KT 5SM -SHRA BR OVC050
     FM271200 20005KT 5SM -SHRA BR OVC030
     FM271500 27007KT P6SM -SHRA OVC025=

USA.gov is the U.S. government's official web portal to all federal, state and local government web resources and services.